DAL1020 LKMT-LERS
Flight info
| Callsign | DAL1020 |
|---|---|
| Flight time | 2h 28m |
| Altitude | 34000 |
| Route | UPLAV DCT MIKOV DCT LIMRA DCT DETSA/N0489F350 DCT NEVNI DCT BORDI DCT PADKO UM984 DIVKO G7 MAMES M984 BISBA N975 BCN |
| Aircraft | L101/H-SDFGHIRWXY/S |
Departure
| Time | 2026-05-09 09:56 |
|---|---|
| Airport | Leoš Janáček Airport Ostrava (LKMT) |
Arrival
| Time | 2026-05-09 12:24 |
|---|---|
| Airport | Reus Airport (LERS) |
| Time | Latitude | Longitude | Altitude | Speed | Heading |
|---|---|---|---|---|---|
| 2026-05-09 09:12 | 49.68561 | 18.10221 | 849 ft | 0 kts | 44° |
| 2026-05-09 09:25 | 49.68561 | 18.10220 | 849 ft | 0 kts | 44° |
| 2026-05-09 09:39 | 49.68561 | 18.10221 | 849 ft | 0 kts | 44° |
| 2026-05-09 09:40 | 49.68562 | 18.10221 | 849 ft | 0 kts | 44° |
| 2026-05-09 09:40 | 49.68563 | 18.10223 | 849 ft | 1 kts | 44° |
| 2026-05-09 09:40 | 49.68569 | 18.10233 | 844 ft | 2 kts | 44° |
| 2026-05-09 09:40 | 49.68584 | 18.10256 | 840 ft | 4 kts | 44° |
| 2026-05-09 09:41 | 49.68607 | 18.10290 | 835 ft | 5 kts | 45° |
| 2026-05-09 09:41 | 49.68625 | 18.10318 | 834 ft | 1 kts | 45° |
| 2026-05-09 09:41 | 49.68626 | 18.10319 | 834 ft | 0 kts | 45° |
| 2026-05-09 09:46 | 49.68644 | 18.10332 | 838 ft | 4 kts | 12° |
| 2026-05-09 09:47 | 49.68663 | 18.10328 | 837 ft | 2 kts | 339° |
| 2026-05-09 09:47 | 49.68678 | 18.10304 | 836 ft | 2 kts | 302° |
| 2026-05-09 09:47 | 49.68682 | 18.10282 | 842 ft | 4 kts | 275° |
| 2026-05-09 09:47 | 49.68665 | 18.10234 | 835 ft | 6 kts | 224° |
| 2026-05-09 09:48 | 49.68630 | 18.10183 | 836 ft | 7 kts | 224° |
| 2026-05-09 09:48 | 49.68594 | 18.10129 | 836 ft | 7 kts | 224° |
| 2026-05-09 09:48 | 49.68562 | 18.10081 | 840 ft | 6 kts | 225° |
| 2026-05-09 09:48 | 49.68529 | 18.10030 | 841 ft | 7 kts | 225° |
| 2026-05-09 09:49 | 49.68490 | 18.09969 | 839 ft | 8 kts | 225° |
| 2026-05-09 09:49 | 49.68448 | 18.09904 | 847 ft | 8 kts | 225° |
| 2026-05-09 09:49 | 49.68409 | 18.09837 | 845 ft | 9 kts | 228° |
| 2026-05-09 09:49 | 49.68364 | 18.09759 | 845 ft | 11 kts | 228° |
| 2026-05-09 09:50 | 49.68325 | 18.09683 | 841 ft | 5 kts | 251° |
| 2026-05-09 09:50 | 49.68331 | 18.09638 | 844 ft | 4 kts | 303° |
| 2026-05-09 09:50 | 49.68348 | 18.09612 | 846 ft | 3 kts | 317° |
| 2026-05-09 09:50 | 49.68363 | 18.09592 | 846 ft | 3 kts | 319° |
| 2026-05-09 09:51 | 49.68378 | 18.09572 | 846 ft | 3 kts | 319° |
| 2026-05-09 09:51 | 49.68399 | 18.09545 | 843 ft | 5 kts | 319° |
| 2026-05-09 09:51 | 49.68430 | 18.09502 | 843 ft | 4 kts | 319° |
| 2026-05-09 09:51 | 49.68431 | 18.09501 | 843 ft | 0 kts | 319° |
| 2026-05-09 09:54 | 49.68434 | 18.09497 | 844 ft | 3 kts | 319° |
| 2026-05-09 09:54 | 49.68463 | 18.09458 | 844 ft | 9 kts | 318° |
| 2026-05-09 09:54 | 49.68508 | 18.09397 | 843 ft | 6 kts | 322° |
| 2026-05-09 09:54 | 49.68534 | 18.09384 | 855 ft | 6 kts | 357° |
| 2026-05-09 09:55 | 49.68579 | 18.09413 | 847 ft | 10 kts | 39° |
| 2026-05-09 09:55 | 49.68784 | 18.09738 | 847 ft | 82 kts | 46° |
| 2026-05-09 09:55 | 49.69355 | 18.10655 | 834 ft | 152 kts | 46° |
| 2026-05-09 09:55 | 49.70169 | 18.11980 | 1325 ft | 180 kts | 45° |
| 2026-05-09 09:56 | 49.71058 | 18.13449 | 2129 ft | 198 kts | 47° |
| 2026-05-09 09:56 | 49.72025 | 18.15155 | 2701 ft | 228 kts | 49° |
| 2026-05-09 09:56 | 49.73135 | 18.17092 | 3399 ft | 243 kts | 46° |
| 2026-05-09 09:56 | 49.74253 | 18.18961 | 4398 ft | 234 kts | 46° |
| 2026-05-09 09:57 | 49.75454 | 18.20991 | 4188 ft | 278 kts | 46° |
| 2026-05-09 09:57 | 49.76791 | 18.23303 | 4842 ft | 293 kts | 46° |
| 2026-05-09 09:57 | 49.78189 | 18.25464 | 6300 ft | 273 kts | 40° |
| 2026-05-09 09:57 | 49.79666 | 18.27120 | 7738 ft | 255 kts | 20° |
| 2026-05-09 09:58 | 49.81361 | 18.27674 | 8780 ft | 251 kts | 355° |
| 2026-05-09 09:58 | 49.83115 | 18.27049 | 9164 ft | 274 kts | 332° |
| 2026-05-09 09:58 | 49.84678 | 18.25203 | 9619 ft | 291 kts | 308° |
| 2026-05-09 09:58 | 49.85662 | 18.22505 | 10661 ft | 287 kts | 288° |
| 2026-05-09 09:59 | 49.85983 | 18.19398 | 11277 ft | 303 kts | 269° |
| 2026-05-09 09:59 | 49.85621 | 18.16034 | 11404 ft | 333 kts | 252° |
| 2026-05-09 09:59 | 49.84555 | 18.12693 | 11513 ft | 362 kts | 238° |
| 2026-05-09 09:59 | 49.82932 | 18.09522 | 11866 ft | 381 kts | 229° |
| 2026-05-09 10:00 | 49.81015 | 18.06720 | 12945 ft | 376 kts | 221° |
| 2026-05-09 10:00 | 49.78965 | 18.04240 | 14066 ft | 376 kts | 219° |
| 2026-05-09 10:00 | 49.76805 | 18.01803 | 14482 ft | 392 kts | 217° |
| 2026-05-09 10:00 | 49.74997 | 17.99814 | 15102 ft | 394 kts | 217° |
| 2026-05-09 10:01 | 49.74170 | 17.98910 | 15583 ft | 388 kts | 217° |
| 2026-05-09 10:01 | 49.71983 | 17.96527 | 16805 ft | 384 kts | 217° |
| 2026-05-09 10:01 | 49.71348 | 17.95835 | 17034 ft | 387 kts | 217° |
| 2026-05-09 10:01 | 49.69929 | 17.94285 | 17254 ft | 399 kts | 217° |
| 2026-05-09 10:02 | 49.69050 | 17.93323 | 17352 ft | 407 kts | 217° |
| 2026-05-09 10:02 | 49.66720 | 17.90770 | 18116 ft | 412 kts | 217° |
| 2026-05-09 10:02 | 49.64403 | 17.88234 | 19326 ft | 406 kts | 217° |
| 2026-05-09 10:02 | 49.62082 | 17.85698 | 19998 ft | 416 kts | 217° |
| 2026-05-09 10:03 | 49.59705 | 17.83099 | 20769 ft | 419 kts | 217° |
| 2026-05-09 10:03 | 49.57324 | 17.80499 | 21669 ft | 422 kts | 217° |
| 2026-05-09 10:03 | 49.54909 | 17.77864 | 22460 ft | 426 kts | 217° |
| 2026-05-09 10:03 | 49.52481 | 17.75216 | 23237 ft | 430 kts | 217° |
| 2026-05-09 10:04 | 49.50031 | 17.72545 | 23940 ft | 434 kts | 217° |
| 2026-05-09 10:04 | 49.47559 | 17.69853 | 24616 ft | 437 kts | 217° |
| 2026-05-09 10:04 | 49.45067 | 17.67141 | 25250 ft | 440 kts | 217° |
| 2026-05-09 10:04 | 49.42567 | 17.64423 | 25875 ft | 443 kts | 217° |
| 2026-05-09 10:05 | 49.40045 | 17.61681 | 26499 ft | 445 kts | 217° |
| 2026-05-09 10:05 | 49.37507 | 17.58926 | 27104 ft | 449 kts | 217° |
| 2026-05-09 10:05 | 49.34954 | 17.56152 | 27732 ft | 451 kts | 217° |
| 2026-05-09 10:05 | 49.32440 | 17.53248 | 28281 ft | 453 kts | 223° |
| 2026-05-09 10:06 | 49.30204 | 17.49841 | 28816 ft | 455 kts | 230° |
| 2026-05-09 10:06 | 49.28122 | 17.46175 | 29453 ft | 455 kts | 230° |
| 2026-05-09 10:06 | 49.26019 | 17.42573 | 30281 ft | 452 kts | 229° |
| 2026-05-09 10:06 | 49.23864 | 17.39074 | 30884 ft | 451 kts | 228° |
| 2026-05-09 10:07 | 49.21706 | 17.35595 | 31488 ft | 450 kts | 229° |
| 2026-05-09 10:07 | 49.19576 | 17.32075 | 32090 ft | 450 kts | 230° |
| 2026-05-09 10:07 | 49.17486 | 17.28541 | 32661 ft | 449 kts | 230° |
| 2026-05-09 10:07 | 49.15403 | 17.24990 | 33263 ft | 448 kts | 230° |
| 2026-05-09 10:08 | 49.13325 | 17.21457 | 33781 ft | 449 kts | 230° |
| 2026-05-09 10:08 | 49.11245 | 17.17930 | 33967 ft | 452 kts | 230° |
| 2026-05-09 10:08 | 49.09159 | 17.14399 | 34091 ft | 451 kts | 231° |
| 2026-05-09 10:09 | 49.04955 | 17.07290 | 34135 ft | 451 kts | 231° |
| 2026-05-09 10:09 | 49.00826 | 17.00331 | 34145 ft | 450 kts | 230° |
| 2026-05-09 10:10 | 48.96621 | 16.93264 | 34133 ft | 450 kts | 230° |
| 2026-05-09 10:10 | 48.92417 | 16.86212 | 34142 ft | 449 kts | 231° |
| 2026-05-09 10:11 | 48.88232 | 16.79198 | 34144 ft | 447 kts | 231° |
| 2026-05-09 10:11 | 48.84044 | 16.72210 | 34139 ft | 447 kts | 231° |
| 2026-05-09 10:12 | 48.79885 | 16.65281 | 34143 ft | 447 kts | 232° |
| 2026-05-09 10:12 | 48.76322 | 16.57595 | 34124 ft | 441 kts | 243° |
| 2026-05-09 10:13 | 48.73163 | 16.49677 | 34143 ft | 437 kts | 240° |
| 2026-05-09 10:13 | 48.69956 | 16.41949 | 34145 ft | 436 kts | 242° |
| 2026-05-09 10:14 | 48.68340 | 16.37878 | 34171 ft | 435 kts | 242° |
| 2026-05-09 10:14 | 48.67121 | 16.34767 | 34137 ft | 435 kts | 242° |
| 2026-05-09 10:15 | 48.64046 | 16.26885 | 34149 ft | 435 kts | 242° |
| 2026-05-09 10:15 | 48.60971 | 16.19012 | 34149 ft | 435 kts | 242° |
| 2026-05-09 10:16 | 48.60253 | 16.17179 | 34147 ft | 435 kts | 242° |
| 2026-05-09 10:16 | 48.57872 | 16.11102 | 34138 ft | 433 kts | 243° |
| 2026-05-09 10:17 | 48.54812 | 16.03289 | 34138 ft | 432 kts | 243° |
| 2026-05-09 10:17 | 48.51748 | 15.95495 | 34155 ft | 431 kts | 242° |
| 2026-05-09 10:18 | 48.48677 | 15.87719 | 34155 ft | 431 kts | 242° |
| 2026-05-09 10:18 | 48.45732 | 15.80271 | 34141 ft | 431 kts | 242° |
| 2026-05-09 10:19 | 48.42657 | 15.72512 | 34137 ft | 430 kts | 243° |
| 2026-05-09 10:19 | 48.39589 | 15.64803 | 34148 ft | 429 kts | 242° |
| 2026-05-09 10:20 | 48.36516 | 15.57101 | 34149 ft | 429 kts | 242° |
| 2026-05-09 10:20 | 48.33430 | 15.49399 | 34148 ft | 429 kts | 242° |
| 2026-05-09 10:21 | 48.30342 | 15.41718 | 34143 ft | 430 kts | 242° |
| 2026-05-09 10:21 | 48.27249 | 15.34045 | 34118 ft | 429 kts | 242° |
| 2026-05-09 10:22 | 48.24164 | 15.26400 | 34145 ft | 428 kts | 242° |
| 2026-05-09 10:22 | 48.21079 | 15.18761 | 34137 ft | 428 kts | 242° |
| 2026-05-09 10:23 | 48.17981 | 15.11137 | 34143 ft | 428 kts | 242° |
| 2026-05-09 10:23 | 48.14878 | 15.03525 | 34138 ft | 428 kts | 242° |
| 2026-05-09 10:24 | 48.11769 | 14.95908 | 34134 ft | 429 kts | 242° |
| 2026-05-09 10:24 | 48.08654 | 14.88299 | 34132 ft | 429 kts | 242° |
| 2026-05-09 10:25 | 48.05531 | 14.80702 | 34135 ft | 429 kts | 242° |
| 2026-05-09 10:25 | 48.02407 | 14.73118 | 34135 ft | 429 kts | 242° |
| 2026-05-09 10:26 | 47.99276 | 14.65539 | 34134 ft | 429 kts | 242° |
| 2026-05-09 10:26 | 47.96141 | 14.57970 | 34130 ft | 429 kts | 242° |
| 2026-05-09 10:27 | 47.92998 | 14.50390 | 34139 ft | 429 kts | 242° |
| 2026-05-09 10:27 | 47.89745 | 14.42897 | 34132 ft | 432 kts | 238° |
| 2026-05-09 10:28 | 47.86090 | 14.35769 | 34124 ft | 433 kts | 236° |
| 2026-05-09 10:28 | 47.82467 | 14.28633 | 34131 ft | 432 kts | 237° |
| 2026-05-09 10:29 | 47.78903 | 14.21414 | 34138 ft | 433 kts | 237° |
| 2026-05-09 10:29 | 47.75332 | 14.14216 | 34126 ft | 433 kts | 237° |
| 2026-05-09 10:30 | 47.71772 | 14.07040 | 34411 ft | 428 kts | 237° |
| 2026-05-09 10:30 | 47.70007 | 14.03491 | 34872 ft | 429 kts | 237° |
| 2026-05-09 10:30 | 47.68244 | 13.99952 | 35078 ft | 435 kts | 237° |
| 2026-05-09 10:31 | 47.64629 | 13.92693 | 35125 ft | 438 kts | 237° |
| 2026-05-09 10:31 | 47.61001 | 13.85448 | 35134 ft | 438 kts | 237° |
| 2026-05-09 10:32 | 47.57359 | 13.78203 | 35140 ft | 439 kts | 236° |
| 2026-05-09 10:32 | 47.53703 | 13.70949 | 35127 ft | 439 kts | 237° |
| 2026-05-09 10:33 | 47.50055 | 13.63710 | 35125 ft | 439 kts | 236° |
| 2026-05-09 10:33 | 47.46397 | 13.56475 | 35124 ft | 439 kts | 236° |
| 2026-05-09 10:34 | 47.42743 | 13.49250 | 35136 ft | 439 kts | 236° |
| 2026-05-09 10:34 | 47.37226 | 13.38399 | 35129 ft | 441 kts | 236° |
| 2026-05-09 10:35 | 47.33537 | 13.31147 | 35128 ft | 442 kts | 236° |
| 2026-05-09 10:35 | 47.29829 | 13.23906 | 35127 ft | 442 kts | 236° |
| 2026-05-09 10:36 | 47.26122 | 13.16684 | 35121 ft | 442 kts | 236° |
| 2026-05-09 10:36 | 47.22406 | 13.09450 | 35114 ft | 444 kts | 235° |
| 2026-05-09 10:37 | 47.18665 | 13.02183 | 35122 ft | 447 kts | 236° |
| 2026-05-09 10:37 | 47.15544 | 12.96140 | 35116 ft | 446 kts | 235° |
| 2026-05-09 10:38 | 47.11784 | 12.88884 | 35109 ft | 447 kts | 236° |
| 2026-05-09 10:38 | 47.08015 | 12.81648 | 35096 ft | 446 kts | 235° |
| 2026-05-09 10:39 | 47.04250 | 12.74406 | 35112 ft | 447 kts | 235° |
| 2026-05-09 10:39 | 47.00458 | 12.67154 | 35106 ft | 448 kts | 235° |
| 2026-05-09 10:40 | 46.96672 | 12.59916 | 35113 ft | 447 kts | 235° |
| 2026-05-09 10:40 | 46.92875 | 12.52673 | 35135 ft | 448 kts | 235° |
| 2026-05-09 10:41 | 46.89076 | 12.45443 | 35143 ft | 448 kts | 235° |
| 2026-05-09 10:41 | 46.85276 | 12.38242 | 35168 ft | 447 kts | 235° |
| 2026-05-09 10:42 | 46.81474 | 12.31061 | 35190 ft | 447 kts | 234° |
| 2026-05-09 10:42 | 46.77544 | 12.24005 | 35191 ft | 449 kts | 232° |
| 2026-05-09 10:43 | 46.73467 | 12.17099 | 35070 ft | 449 kts | 232° |
| 2026-05-09 10:43 | 46.69470 | 12.10145 | 35092 ft | 446 kts | 233° |
| 2026-05-09 10:44 | 46.65521 | 12.03180 | 35083 ft | 445 kts | 233° |
| 2026-05-09 10:44 | 46.61563 | 11.96233 | 35084 ft | 446 kts | 233° |
| 2026-05-09 10:46 | 46.51677 | 11.78943 | 35090 ft | 443 kts | 234° |
| 2026-05-09 10:46 | 46.47722 | 11.72105 | 35098 ft | 442 kts | 233° |
| 2026-05-09 10:47 | 46.43789 | 11.65265 | 35107 ft | 441 kts | 234° |
| 2026-05-09 10:47 | 46.39858 | 11.58418 | 35119 ft | 443 kts | 234° |
| 2026-05-09 10:48 | 46.35954 | 11.51670 | 35098 ft | 438 kts | 234° |
| 2026-05-09 10:48 | 46.32047 | 11.44926 | 35127 ft | 444 kts | 234° |
| 2026-05-09 10:49 | 46.28039 | 11.38009 | 35129 ft | 450 kts | 234° |
| 2026-05-09 10:49 | 46.24002 | 11.31094 | 35139 ft | 450 kts | 234° |
| 2026-05-09 10:50 | 46.19955 | 11.24170 | 35194 ft | 452 kts | 234° |
| 2026-05-09 10:50 | 46.15909 | 11.17259 | 35202 ft | 451 kts | 234° |
| 2026-05-09 10:51 | 46.11856 | 11.10351 | 35196 ft | 451 kts | 234° |
| 2026-05-09 10:51 | 46.07809 | 11.03482 | 35185 ft | 446 kts | 234° |
| 2026-05-09 10:52 | 46.03841 | 10.96769 | 35154 ft | 436 kts | 235° |
| 2026-05-09 10:52 | 45.99947 | 10.90183 | 35175 ft | 429 kts | 235° |
| 2026-05-09 10:53 | 45.96102 | 10.83684 | 35160 ft | 425 kts | 235° |
| 2026-05-09 10:53 | 45.92252 | 10.77216 | 35167 ft | 426 kts | 235° |
| 2026-05-09 10:54 | 45.88405 | 10.70759 | 35154 ft | 426 kts | 235° |
| 2026-05-09 10:54 | 45.84553 | 10.64312 | 35148 ft | 423 kts | 236° |
| 2026-05-09 10:55 | 45.80732 | 10.57927 | 35137 ft | 421 kts | 235° |
| 2026-05-09 10:55 | 45.76920 | 10.51567 | 35143 ft | 421 kts | 236° |
| 2026-05-09 10:56 | 45.73103 | 10.45216 | 35133 ft | 421 kts | 235° |
| 2026-05-09 10:56 | 45.69281 | 10.38885 | 35085 ft | 420 kts | 234° |
| 2026-05-09 10:57 | 45.65486 | 10.32601 | 35104 ft | 419 kts | 235° |
| 2026-05-09 10:57 | 45.61729 | 10.26386 | 35096 ft | 419 kts | 235° |
| 2026-05-09 10:58 | 45.57903 | 10.20074 | 35102 ft | 419 kts | 235° |
| 2026-05-09 10:58 | 45.54098 | 10.13818 | 35098 ft | 419 kts | 234° |
| 2026-05-09 10:59 | 45.50275 | 10.07548 | 35103 ft | 419 kts | 234° |
| 2026-05-09 10:59 | 45.46443 | 10.01274 | 35103 ft | 419 kts | 234° |
| 2026-05-09 11:00 | 45.42609 | 9.95015 | 35095 ft | 420 kts | 234° |
| 2026-05-09 11:00 | 45.38770 | 9.88766 | 35092 ft | 419 kts | 234° |
| 2026-05-09 11:01 | 45.34929 | 9.82515 | 35081 ft | 419 kts | 234° |
| 2026-05-09 11:01 | 45.31088 | 9.76278 | 35099 ft | 419 kts | 234° |
| 2026-05-09 11:02 | 45.27237 | 9.70048 | 35098 ft | 419 kts | 234° |
| 2026-05-09 11:02 | 45.23389 | 9.63831 | 35095 ft | 419 kts | 233° |
| 2026-05-09 11:03 | 45.19538 | 9.57628 | 35082 ft | 419 kts | 233° |
| 2026-05-09 11:03 | 45.15681 | 9.51427 | 35075 ft | 419 kts | 233° |
| 2026-05-09 11:04 | 45.11822 | 9.45238 | 35084 ft | 419 kts | 233° |
| 2026-05-09 11:04 | 45.07963 | 9.39062 | 35084 ft | 419 kts | 233° |
| 2026-05-09 11:05 | 45.04103 | 9.32895 | 35088 ft | 419 kts | 233° |
| 2026-05-09 11:05 | 45.00235 | 9.26727 | 35067 ft | 419 kts | 233° |
| 2026-05-09 11:06 | 44.96367 | 9.20576 | 35086 ft | 419 kts | 232° |
| 2026-05-09 11:06 | 44.92495 | 9.14436 | 35091 ft | 418 kts | 232° |
| 2026-05-09 11:07 | 44.88623 | 9.08310 | 35090 ft | 418 kts | 232° |
| 2026-05-09 11:07 | 44.84752 | 9.02198 | 35092 ft | 418 kts | 232° |
| 2026-05-09 11:08 | 44.80871 | 8.96086 | 35095 ft | 418 kts | 232° |
| 2026-05-09 11:08 | 44.76998 | 8.89986 | 35101 ft | 418 kts | 232° |
| 2026-05-09 11:09 | 44.73123 | 8.83895 | 35099 ft | 418 kts | 232° |
| 2026-05-09 11:09 | 44.69238 | 8.77819 | 35101 ft | 418 kts | 232° |
| 2026-05-09 11:10 | 44.65356 | 8.71755 | 35087 ft | 417 kts | 232° |
| 2026-05-09 11:10 | 44.61472 | 8.65701 | 35101 ft | 417 kts | 231° |
| 2026-05-09 11:11 | 44.57608 | 8.59698 | 35099 ft | 417 kts | 231° |
| 2026-05-09 11:11 | 44.53723 | 8.53668 | 35098 ft | 417 kts | 231° |
| 2026-05-09 11:12 | 44.49935 | 8.47796 | 35100 ft | 417 kts | 231° |
| 2026-05-09 11:12 | 44.46037 | 8.41769 | 35105 ft | 417 kts | 231° |
| 2026-05-09 11:13 | 44.42142 | 8.35761 | 35095 ft | 417 kts | 231° |
| 2026-05-09 11:13 | 44.38248 | 8.29762 | 35100 ft | 417 kts | 231° |
| 2026-05-09 11:14 | 44.34348 | 8.23775 | 35097 ft | 416 kts | 231° |
| 2026-05-09 11:14 | 44.30446 | 8.17797 | 35094 ft | 416 kts | 230° |
| 2026-05-09 11:15 | 44.26544 | 8.11830 | 35101 ft | 416 kts | 230° |
| 2026-05-09 11:15 | 44.22641 | 8.05871 | 35108 ft | 416 kts | 230° |
| 2026-05-09 11:16 | 44.18737 | 7.99922 | 35092 ft | 416 kts | 230° |
| 2026-05-09 11:16 | 44.14841 | 7.93997 | 35092 ft | 415 kts | 230° |
| 2026-05-09 11:17 | 44.10934 | 7.88079 | 35067 ft | 414 kts | 230° |
| 2026-05-09 11:17 | 44.07046 | 7.82160 | 35097 ft | 415 kts | 230° |
| 2026-05-09 11:18 | 44.03183 | 7.76207 | 35082 ft | 415 kts | 236° |
| 2026-05-09 11:18 | 44.00578 | 7.69163 | 35106 ft | 411 kts | 245° |
| 2026-05-09 11:19 | 43.97875 | 7.62205 | 35101 ft | 412 kts | 242° |
| 2026-05-09 11:19 | 43.95297 | 7.55107 | 35106 ft | 412 kts | 245° |
| 2026-05-09 11:20 | 43.92969 | 7.47842 | 35093 ft | 412 kts | 245° |
| 2026-05-09 11:20 | 43.90648 | 7.40579 | 35095 ft | 412 kts | 245° |
| 2026-05-09 11:21 | 43.88339 | 7.33295 | 35085 ft | 413 kts | 245° |
| 2026-05-09 11:21 | 43.86029 | 7.26033 | 35089 ft | 412 kts | 245° |
| 2026-05-09 11:22 | 43.83717 | 7.18770 | 35084 ft | 412 kts | 245° |
| 2026-05-09 11:22 | 43.81792 | 7.12735 | 35076 ft | 412 kts | 245° |
| 2026-05-09 11:23 | 43.79476 | 7.05482 | 35078 ft | 412 kts | 245° |
| 2026-05-09 11:23 | 43.77154 | 6.98232 | 35074 ft | 412 kts | 245° |
| 2026-05-09 11:24 | 43.74824 | 6.90979 | 35070 ft | 412 kts | 245° |
| 2026-05-09 11:24 | 43.72493 | 6.83742 | 35083 ft | 412 kts | 245° |
| 2026-05-09 11:25 | 43.70151 | 6.76494 | 35073 ft | 413 kts | 245° |
| 2026-05-09 11:25 | 43.67829 | 6.69332 | 35066 ft | 413 kts | 245° |
| 2026-05-09 11:26 | 43.65486 | 6.62111 | 35060 ft | 412 kts | 244° |
| 2026-05-09 11:26 | 43.63132 | 6.54874 | 35053 ft | 413 kts | 244° |
| 2026-05-09 11:27 | 43.60769 | 6.47644 | 35050 ft | 414 kts | 244° |
| 2026-05-09 11:27 | 43.58398 | 6.40409 | 35052 ft | 413 kts | 244° |
| 2026-05-09 11:28 | 43.56027 | 6.33181 | 35044 ft | 414 kts | 244° |
| 2026-05-09 11:28 | 43.53667 | 6.26005 | 35054 ft | 414 kts | 244° |
| 2026-05-09 11:29 | 43.51282 | 6.18773 | 35040 ft | 414 kts | 244° |
| 2026-05-09 11:29 | 43.48893 | 6.11552 | 35049 ft | 414 kts | 244° |
| 2026-05-09 11:30 | 43.46499 | 6.04336 | 35035 ft | 414 kts | 243° |
| 2026-05-09 11:30 | 43.44099 | 5.97125 | 35034 ft | 414 kts | 243° |
| 2026-05-09 11:31 | 43.41691 | 5.89915 | 35033 ft | 415 kts | 243° |
| 2026-05-09 11:31 | 43.39282 | 5.82712 | 35032 ft | 415 kts | 243° |
| 2026-05-09 11:32 | 43.36874 | 5.75505 | 35021 ft | 415 kts | 243° |
| 2026-05-09 11:32 | 43.34455 | 5.68309 | 35043 ft | 415 kts | 243° |
| 2026-05-09 11:33 | 43.32011 | 5.61101 | 35024 ft | 417 kts | 242° |
| 2026-05-09 11:33 | 43.28360 | 5.50290 | 35020 ft | 416 kts | 242° |
| 2026-05-09 11:34 | 43.25931 | 5.43137 | 35018 ft | 417 kts | 242° |
| 2026-05-09 11:34 | 43.23480 | 5.35932 | 35027 ft | 416 kts | 242° |
| 2026-05-09 11:35 | 43.21100 | 5.28689 | 35032 ft | 417 kts | 243° |
| 2026-05-09 11:35 | 43.18709 | 5.21445 | 35024 ft | 417 kts | 243° |
| 2026-05-09 11:36 | 43.16362 | 5.14174 | 35021 ft | 418 kts | 243° |
| 2026-05-09 11:36 | 43.14063 | 5.06862 | 35023 ft | 418 kts | 243° |
| 2026-05-09 11:37 | 43.11762 | 4.99550 | 35018 ft | 418 kts | 243° |
| 2026-05-09 11:37 | 43.09461 | 4.92239 | 35031 ft | 419 kts | 243° |
| 2026-05-09 11:38 | 43.07155 | 4.84927 | 35023 ft | 419 kts | 243° |
| 2026-05-09 11:38 | 43.04134 | 4.78339 | 34965 ft | 408 kts | 219° |
| 2026-05-09 11:39 | 42.99564 | 4.73731 | 35054 ft | 411 kts | 219° |
| 2026-05-09 11:40 | 42.92930 | 4.66295 | 35021 ft | 412 kts | 216° |
| 2026-05-09 11:40 | 42.88241 | 4.61810 | 35014 ft | 411 kts | 215° |
| 2026-05-09 11:41 | 42.83521 | 4.57394 | 35020 ft | 411 kts | 215° |
| 2026-05-09 11:41 | 42.78799 | 4.52981 | 35017 ft | 411 kts | 214° |
| 2026-05-09 11:42 | 42.74072 | 4.48607 | 35012 ft | 411 kts | 214° |
| 2026-05-09 11:42 | 42.69342 | 4.44244 | 35010 ft | 411 kts | 214° |
| 2026-05-09 11:43 | 42.64603 | 4.39880 | 35002 ft | 411 kts | 214° |
| 2026-05-09 11:43 | 42.59869 | 4.35529 | 35005 ft | 411 kts | 214° |
| 2026-05-09 11:44 | 42.55132 | 4.31185 | 35007 ft | 411 kts | 214° |
| 2026-05-09 11:44 | 42.50389 | 4.26850 | 34998 ft | 411 kts | 214° |
| 2026-05-09 11:45 | 42.45641 | 4.22514 | 35003 ft | 412 kts | 214° |
| 2026-05-09 11:45 | 42.40889 | 4.18185 | 35010 ft | 412 kts | 213° |
| 2026-05-09 11:46 | 42.36142 | 4.13849 | 34996 ft | 411 kts | 213° |
| 2026-05-09 11:46 | 42.31394 | 4.09544 | 34986 ft | 411 kts | 213° |
| 2026-05-09 11:47 | 42.26635 | 4.05219 | 34987 ft | 412 kts | 213° |
| 2026-05-09 11:47 | 42.21877 | 4.00903 | 34988 ft | 412 kts | 214° |
| 2026-05-09 11:47 | 42.19708 | 3.98378 | 34923 ft | 415 kts | 229° |
| 2026-05-09 11:48 | 42.18204 | 3.95069 | 34930 ft | 418 kts | 242° |
| 2026-05-09 11:48 | 42.16173 | 3.87699 | 35009 ft | 424 kts | 243° |
| 2026-05-09 11:49 | 42.13780 | 3.80400 | 35015 ft | 423 kts | 240° |
| 2026-05-09 11:49 | 42.11346 | 3.73171 | 34990 ft | 426 kts | 241° |
| 2026-05-09 11:50 | 42.08952 | 3.65868 | 34990 ft | 426 kts | 241° |
| 2026-05-09 11:50 | 42.06554 | 3.58578 | 34988 ft | 426 kts | 241° |
| 2026-05-09 11:50 | 42.05357 | 3.54971 | 34800 ft | 429 kts | 240° |
| 2026-05-09 11:51 | 42.04147 | 3.51331 | 34404 ft | 421 kts | 240° |
| 2026-05-09 11:51 | 42.02982 | 3.47794 | 34336 ft | 408 kts | 240° |
| 2026-05-09 11:51 | 42.01832 | 3.44316 | 34359 ft | 408 kts | 240° |
| 2026-05-09 11:52 | 41.99487 | 3.37314 | 33918 ft | 415 kts | 240° |
| 2026-05-09 11:52 | 41.98310 | 3.33783 | 33375 ft | 414 kts | 240° |
| 2026-05-09 11:52 | 41.97137 | 3.30241 | 32842 ft | 415 kts | 240° |
| 2026-05-09 11:52 | 41.95967 | 3.26701 | 32324 ft | 417 kts | 241° |
| 2026-05-09 11:53 | 41.94805 | 3.23092 | 31810 ft | 422 kts | 245° |
| 2026-05-09 11:53 | 41.93809 | 3.19373 | 31291 ft | 424 kts | 243° |
| 2026-05-09 11:53 | 41.92814 | 3.15621 | 30807 ft | 429 kts | 246° |
| 2026-05-09 11:53 | 41.91600 | 3.11989 | 30289 ft | 425 kts | 236° |
| 2026-05-09 11:54 | 41.90011 | 3.08649 | 29777 ft | 426 kts | 232° |
| 2026-05-09 11:54 | 41.88257 | 3.05440 | 29197 ft | 428 kts | 230° |
| 2026-05-09 11:54 | 41.86415 | 3.02278 | 28708 ft | 431 kts | 229° |
| 2026-05-09 11:54 | 41.84536 | 2.99145 | 28154 ft | 427 kts | 229° |
| 2026-05-09 11:55 | 41.82685 | 2.96094 | 27625 ft | 418 kts | 228° |
| 2026-05-09 11:56 | 41.73688 | 2.81324 | 25129 ft | 403 kts | 228° |
| 2026-05-09 11:56 | 41.71927 | 2.78428 | 24660 ft | 400 kts | 228° |
| 2026-05-09 11:56 | 41.70175 | 2.75545 | 24195 ft | 397 kts | 228° |
| 2026-05-09 11:57 | 41.68437 | 2.72683 | 23740 ft | 395 kts | 228° |
| 2026-05-09 11:57 | 41.66707 | 2.69836 | 23230 ft | 394 kts | 228° |
| 2026-05-09 11:57 | 41.64984 | 2.67001 | 22702 ft | 392 kts | 228° |
| 2026-05-09 11:57 | 41.63269 | 2.64176 | 22165 ft | 392 kts | 228° |
| 2026-05-09 11:58 | 41.61550 | 2.61345 | 21645 ft | 391 kts | 229° |
| 2026-05-09 11:58 | 41.59837 | 2.58522 | 21144 ft | 391 kts | 229° |
| 2026-05-09 11:58 | 41.58129 | 2.55706 | 20639 ft | 390 kts | 229° |
| 2026-05-09 11:58 | 41.56423 | 2.52895 | 20146 ft | 388 kts | 229° |
| 2026-05-09 11:59 | 41.54725 | 2.50101 | 19657 ft | 388 kts | 229° |
| 2026-05-09 11:59 | 41.53029 | 2.47310 | 19193 ft | 386 kts | 228° |
| 2026-05-09 11:59 | 41.51346 | 2.44543 | 18715 ft | 382 kts | 228° |
| 2026-05-09 11:59 | 41.49672 | 2.41795 | 18258 ft | 380 kts | 229° |
| 2026-05-09 12:00 | 41.48008 | 2.39068 | 17719 ft | 378 kts | 228° |
| 2026-05-09 12:00 | 41.46352 | 2.36352 | 17195 ft | 376 kts | 228° |
| 2026-05-09 12:00 | 41.44711 | 2.33664 | 16679 ft | 374 kts | 229° |
| 2026-05-09 12:00 | 41.43071 | 2.30979 | 16151 ft | 373 kts | 228° |
| 2026-05-09 12:01 | 41.41439 | 2.28306 | 15685 ft | 371 kts | 227° |
| 2026-05-09 12:01 | 41.39819 | 2.25652 | 15174 ft | 368 kts | 228° |
| 2026-05-09 12:01 | 41.38211 | 2.23014 | 14694 ft | 367 kts | 229° |
| 2026-05-09 12:01 | 41.36606 | 2.20372 | 14223 ft | 365 kts | 229° |
| 2026-05-09 12:02 | 41.35012 | 2.17750 | 13744 ft | 364 kts | 227° |
| 2026-05-09 12:02 | 41.33420 | 2.15149 | 13216 ft | 361 kts | 227° |
| 2026-05-09 12:02 | 41.31824 | 2.12571 | 12693 ft | 361 kts | 228° |
| 2026-05-09 12:02 | 41.30326 | 2.09896 | 12173 ft | 363 kts | 237° |
| 2026-05-09 12:03 | 41.29335 | 2.06837 | 11640 ft | 357 kts | 251° |
| 2026-05-09 12:03 | 41.28991 | 2.03612 | 11160 ft | 350 kts | 267° |
| 2026-05-09 12:03 | 41.29278 | 2.00453 | 10674 ft | 339 kts | 280° |
| 2026-05-09 12:03 | 41.29935 | 1.97550 | 10177 ft | 316 kts | 288° |
| 2026-05-09 12:04 | 41.30781 | 1.94888 | 9744 ft | 310 kts | 292° |
| 2026-05-09 12:04 | 41.31585 | 1.92265 | 9236 ft | 305 kts | 285° |
| 2026-05-09 12:04 | 41.32095 | 1.89545 | 8720 ft | 302 kts | 278° |
| 2026-05-09 12:04 | 41.32427 | 1.86790 | 8214 ft | 301 kts | 275° |
| 2026-05-09 12:05 | 41.32580 | 1.84036 | 7716 ft | 297 kts | 271° |
| 2026-05-09 12:05 | 41.32674 | 1.81299 | 7225 ft | 295 kts | 271° |
| 2026-05-09 12:05 | 41.32790 | 1.78579 | 6747 ft | 295 kts | 272° |
| 2026-05-09 12:05 | 41.32936 | 1.75868 | 6258 ft | 293 kts | 274° |
| 2026-05-09 12:06 | 41.33100 | 1.73173 | 5727 ft | 292 kts | 275° |
| 2026-05-09 12:06 | 41.33273 | 1.70485 | 5331 ft | 288 kts | 275° |
| 2026-05-09 12:06 | 41.33443 | 1.67891 | 5152 ft | 279 kts | 275° |
| 2026-05-09 12:06 | 41.33612 | 1.65291 | 5060 ft | 283 kts | 275° |
| 2026-05-09 12:07 | 41.33776 | 1.62699 | 5004 ft | 284 kts | 275° |
| 2026-05-09 12:07 | 41.33938 | 1.60067 | 4997 ft | 285 kts | 276° |
| 2026-05-09 12:07 | 41.33843 | 1.57456 | 4914 ft | 283 kts | 255° |
| 2026-05-09 12:07 | 41.33165 | 1.55000 | 4986 ft | 285 kts | 244° |
| 2026-05-09 12:08 | 41.32620 | 1.53415 | 5006 ft | 283 kts | 243° |
| 2026-05-09 12:08 | 41.31748 | 1.51149 | 4973 ft | 267 kts | 240° |
| 2026-05-09 12:08 | 41.30863 | 1.49065 | 4975 ft | 253 kts | 238° |
| 2026-05-09 12:08 | 41.29953 | 1.47061 | 4975 ft | 254 kts | 236° |
| 2026-05-09 12:09 | 41.29010 | 1.45068 | 4967 ft | 255 kts | 235° |
| 2026-05-09 12:09 | 41.28049 | 1.43094 | 4960 ft | 255 kts | 235° |
| 2026-05-09 12:09 | 41.27083 | 1.41137 | 4964 ft | 249 kts | 234° |
| 2026-05-09 12:10 | 41.24363 | 1.35721 | 4977 ft | 230 kts | 233° |
| 2026-05-09 12:10 | 41.23472 | 1.33961 | 5015 ft | 229 kts | 234° |
| 2026-05-09 12:10 | 41.22580 | 1.32199 | 5170 ft | 233 kts | 233° |
| 2026-05-09 12:11 | 41.21666 | 1.30398 | 5044 ft | 236 kts | 233° |
| 2026-05-09 12:11 | 41.20756 | 1.28604 | 4987 ft | 232 kts | 233° |
| 2026-05-09 12:11 | 41.19856 | 1.26839 | 5001 ft | 231 kts | 233° |
| 2026-05-09 12:11 | 41.18950 | 1.25072 | 4995 ft | 231 kts | 233° |
| 2026-05-09 12:12 | 41.18042 | 1.23306 | 5008 ft | 231 kts | 234° |
| 2026-05-09 12:12 | 41.17133 | 1.21539 | 5008 ft | 232 kts | 234° |
| 2026-05-09 12:12 | 41.16220 | 1.19766 | 4993 ft | 232 kts | 233° |
| 2026-05-09 12:12 | 41.15321 | 1.17978 | 5010 ft | 234 kts | 235° |
| 2026-05-09 12:13 | 41.14482 | 1.16121 | 4997 ft | 234 kts | 238° |
| 2026-05-09 12:13 | 41.13663 | 1.14268 | 4995 ft | 231 kts | 234° |
| 2026-05-09 12:13 | 41.12649 | 1.12615 | 5016 ft | 231 kts | 232° |
| 2026-05-09 12:13 | 41.11810 | 1.10808 | 5004 ft | 230 kts | 238° |
| 2026-05-09 12:14 | 41.10994 | 1.08980 | 5012 ft | 231 kts | 237° |
| 2026-05-09 12:14 | 41.10152 | 1.07171 | 4998 ft | 231 kts | 236° |
| 2026-05-09 12:14 | 41.09302 | 1.05359 | 5003 ft | 231 kts | 236° |
| 2026-05-09 12:14 | 41.08452 | 1.03549 | 5001 ft | 231 kts | 236° |
| 2026-05-09 12:15 | 41.07605 | 1.01742 | 4870 ft | 233 kts | 236° |
| 2026-05-09 12:15 | 41.06750 | 0.99921 | 4600 ft | 231 kts | 236° |
| 2026-05-09 12:15 | 41.05923 | 0.98159 | 4335 ft | 223 kts | 236° |
| 2026-05-09 12:15 | 41.05112 | 0.96430 | 4182 ft | 215 kts | 235° |
| 2026-05-09 12:16 | 41.04323 | 0.94754 | 4223 ft | 217 kts | 236° |
| 2026-05-09 12:16 | 41.03530 | 0.93073 | 4128 ft | 218 kts | 235° |
| 2026-05-09 12:16 | 41.02730 | 0.91376 | 4097 ft | 217 kts | 236° |
| 2026-05-09 12:16 | 41.01929 | 0.89681 | 4089 ft | 217 kts | 235° |
| 2026-05-09 12:17 | 41.01128 | 0.87988 | 4079 ft | 217 kts | 235° |
| 2026-05-09 12:17 | 41.00662 | 0.86107 | 4023 ft | 220 kts | 268° |
| 2026-05-09 12:17 | 41.01068 | 0.84229 | 4012 ft | 209 kts | 306° |
| 2026-05-09 12:17 | 41.02170 | 0.83108 | 4076 ft | 199 kts | 345° |
| 2026-05-09 12:18 | 41.03485 | 0.83116 | 4070 ft | 186 kts | 25° |
| 2026-05-09 12:18 | 41.04446 | 0.84144 | 4158 ft | 179 kts | 54° |
| 2026-05-09 12:18 | 41.05175 | 0.85489 | 4164 ft | 180 kts | 59° |
| 2026-05-09 12:18 | 41.05827 | 0.86883 | 4115 ft | 178 kts | 62° |
| 2026-05-09 12:19 | 41.06423 | 0.88310 | 4093 ft | 177 kts | 64° |
| 2026-05-09 12:19 | 41.06975 | 0.89763 | 4082 ft | 176 kts | 66° |
| 2026-05-09 12:19 | 41.07496 | 0.91239 | 4053 ft | 178 kts | 68° |
| 2026-05-09 12:19 | 41.07996 | 0.92742 | 3824 ft | 177 kts | 68° |
| 2026-05-09 12:20 | 41.08467 | 0.94243 | 3569 ft | 176 kts | 70° |
| 2026-05-09 12:20 | 41.08921 | 0.95736 | 3292 ft | 175 kts | 70° |
| 2026-05-09 12:20 | 41.09362 | 0.97227 | 2957 ft | 171 kts | 71° |
| 2026-05-09 12:20 | 41.09778 | 0.98658 | 2619 ft | 163 kts | 71° |
| 2026-05-09 12:21 | 41.10172 | 1.00053 | 2302 ft | 161 kts | 72° |
| 2026-05-09 12:21 | 41.10555 | 1.01435 | 2125 ft | 158 kts | 72° |
| 2026-05-09 12:21 | 41.10917 | 1.02758 | 2001 ft | 151 kts | 73° |
| 2026-05-09 12:21 | 41.11273 | 1.04098 | 1745 ft | 158 kts | 72° |
| 2026-05-09 12:22 | 41.11638 | 1.05481 | 1530 ft | 159 kts | 72° |
| 2026-05-09 12:22 | 41.11995 | 1.06867 | 1315 ft | 159 kts | 73° |
| 2026-05-09 12:22 | 41.12361 | 1.08259 | 1039 ft | 161 kts | 72° |
| 2026-05-09 12:22 | 41.12727 | 1.09646 | 945 ft | 158 kts | 71° |
| 2026-05-09 12:23 | 41.13110 | 1.11041 | 832 ft | 164 kts | 71° |
| 2026-05-09 12:23 | 41.13502 | 1.12418 | 691 ft | 157 kts | 70° |
| 2026-05-09 12:23 | 41.13893 | 1.13794 | 588 ft | 161 kts | 70° |
| 2026-05-09 12:23 | 41.14292 | 1.15168 | 371 ft | 158 kts | 70° |
| 2026-05-09 12:24 | 41.14665 | 1.16460 | 245 ft | 138 kts | 69° |
| 2026-05-09 12:24 | 41.15008 | 1.17632 | 249 ft | 92 kts | 68° |
| 2026-05-09 12:24 | 41.15160 | 1.18155 | 250 ft | 37 kts | 70° |
| 2026-05-09 12:24 | 41.15251 | 1.18307 | 249 ft | 18 kts | 26° |
| 2026-05-09 12:25 | 41.15335 | 1.18309 | 249 ft | 10 kts | 330° |
| 2026-05-09 12:25 | 41.15353 | 1.18220 | 249 ft | 12 kts | 255° |
| 2026-05-09 12:25 | 41.15321 | 1.18107 | 249 ft | 15 kts | 249° |
| 2026-05-09 12:25 | 41.15281 | 1.17969 | 248 ft | 17 kts | 249° |
| 2026-05-09 12:26 | 41.15233 | 1.17808 | 248 ft | 20 kts | 249° |
| 2026-05-09 12:26 | 41.15181 | 1.17624 | 247 ft | 23 kts | 250° |
| 2026-05-09 12:26 | 41.15123 | 1.17421 | 247 ft | 25 kts | 248° |
| 2026-05-09 12:26 | 41.15057 | 1.17200 | 246 ft | 27 kts | 249° |
| 2026-05-09 12:27 | 41.14987 | 1.16962 | 246 ft | 29 kts | 249° |
| 2026-05-09 12:27 | 41.14912 | 1.16709 | 246 ft | 30 kts | 248° |
| 2026-05-09 12:27 | 41.14835 | 1.16443 | 245 ft | 32 kts | 249° |
| 2026-05-09 12:27 | 41.14757 | 1.16174 | 245 ft | 25 kts | 248° |
| 2026-05-09 12:28 | 41.14723 | 1.16043 | 245 ft | 4 kts | 268° |
| 2026-05-09 12:28 | 41.14735 | 1.16011 | 245 ft | 4 kts | 315° |
| 2026-05-09 12:28 | 41.14770 | 1.15997 | 245 ft | 7 kts | 349° |
| 2026-05-09 12:28 | 41.14792 | 1.15986 | 245 ft | 0 kts | 338° |